createdAt,value
2023-06-07T00:02:01.890Z,84.15
2023-06-07T00:06:06.515Z,85.53
2023-06-07T00:10:10.231Z,86.03
2023-06-07T00:14:15.421Z,86.56
2023-06-07T00:18:21.603Z,86.29
2023-06-07T00:22:24.454Z,85.87
2023-06-07T00:26:27.307Z,86.25
2023-06-07T00:30:32.011Z,86.61
2023-06-07T00:34:34.947Z,87.10
2023-06-07T00:38:37.742Z,87.39
2023-06-07T00:42:40.640Z,87.95
2023-06-07T00:46:45.226Z,88.41
2023-06-07T00:50:48.963Z,88.57
2023-06-07T00:54:52.746Z,89.05
2023-06-07T00:59:04.594Z,89.22
2023-06-07T01:03:10.205Z,89.15
2023-06-07T01:07:13.625Z,89.09
2023-06-07T01:11:17.950Z,89.42
2023-06-07T01:15:21.050Z,89.12
2023-06-07T01:19:30.794Z,89.46
2023-06-07T01:23:38.052Z,89.34
2023-06-07T01:27:44.883Z,90.28
2023-06-07T01:31:51.274Z,90.38
2023-06-07T01:35:59.086Z,90.19
2023-06-07T01:40:06.657Z,91.03
2023-06-07T01:44:12.631Z,91.32
2023-06-07T01:48:16.419Z,90.92
2023-06-07T01:52:19.299Z,91.34
2023-06-07T01:56:38.191Z,91.81
2023-06-07T02:00:48.278Z,91.74
2023-06-07T02:04:56.550Z,91.36
2023-06-07T02:09:05.338Z,91.34
2023-06-07T02:13:21.902Z,91.83
2023-06-07T02:17:25.635Z,92.20
2023-06-07T02:21:28.535Z,91.76
2023-06-07T02:25:31.888Z,91.45
2023-06-07T02:29:36.325Z,91.19
2023-06-07T02:33:39.111Z,90.98
2023-06-07T02:37:42.004Z,90.99
2023-06-07T02:41:44.852Z,91.18
2023-06-07T02:45:49.185Z,91.01
2023-06-07T02:49:52.414Z,91.71
2023-06-07T02:53:55.814Z,92.48
2023-06-07T02:58:00.651Z,93.28
2023-06-07T03:02:09.001Z,93.37
2023-06-07T03:06:12.994Z,93.83
2023-06-07T03:10:16.697Z,93.70
2023-06-07T03:14:20.606Z,94.20
2023-06-07T03:18:26.936Z,93.93
2023-06-07T03:22:37.451Z,94.33
2023-06-07T03:26:44.776Z,94.30
2023-06-07T03:30:49.137Z,94.61
2023-06-07T03:35:08.487Z,94.64
2023-06-07T03:39:19.043Z,94.38
2023-06-07T03:43:23.120Z,93.78
2023-06-07T03:47:26.056Z,94.16
2023-06-07T03:51:33.252Z,94.41
2023-06-07T03:55:43.107Z,95.30
2023-06-07T03:59:47.267Z,94.91
2023-06-07T04:03:51.118Z,95.78
2023-06-07T04:08:00.329Z,95.91
2023-06-07T04:12:06.574Z,95.96
2023-06-07T04:16:10.069Z,96.20
2023-06-07T04:20:15.868Z,95.98
2023-06-07T04:24:21.264Z,95.44
2023-06-07T04:28:26.262Z,96.06
2023-06-07T04:32:34.480Z,96.40
2023-06-07T04:36:38.523Z,96.72
2023-06-07T04:40:50.471Z,96.49
2023-06-07T04:45:04.301Z,96.94
2023-06-07T04:49:08.305Z,96.04
2023-06-07T04:53:22.461Z,95.54
2023-06-07T04:57:29.754Z,95.50
2023-06-07T05:01:36.968Z,95.50
2023-06-07T05:05:42.839Z,95.30
2023-06-07T05:09:54.569Z,95.43
2023-06-07T05:14:02.689Z,95.91
2023-06-07T05:18:13.342Z,96.58
2023-06-07T05:22:35.230Z,96.78
2023-06-07T05:26:38.872Z,96.00
2023-06-07T05:31:14.238Z,95.56
2023-06-07T05:35:47.528Z,94.87
2023-06-07T05:40:21.706Z,94.96
2023-06-07T05:44:56.906Z,95.48
2023-06-07T05:54:19.612Z,95.40
2023-06-07T06:04:29.372Z,93.55
2023-06-07T06:08:59.853Z,93.33
2023-06-07T06:13:26.516Z,92.30
2023-06-07T06:17:55.358Z,91.34
2023-06-07T06:22:23.364Z,89.81
2023-06-07T06:26:47.286Z,88.68
2023-06-07T06:30:52.315Z,88.35
2023-06-07T06:35:21.332Z,88.15
2023-06-07T06:39:49.450Z,86.49
2023-06-07T06:43:59.874Z,85.80
2023-06-07T06:48:04.234Z,84.77
2023-06-07T06:52:07.988Z,84.95
2023-06-07T07:02:09.178Z,85.78
2023-06-07T07:06:27.176Z,86.30
2023-06-07T07:10:30.123Z,86.51
2023-06-07T07:14:34.865Z,86.25
2023-06-07T07:18:40.988Z,85.76
2023-06-07T07:22:47.574Z,86.40
2023-06-07T07:26:51.270Z,86.86
2023-06-07T07:30:54.096Z,87.80
2023-06-07T07:34:57.031Z,87.52
2023-06-07T07:39:08.159Z,88.31
2023-06-07T07:43:11.928Z,87.55
2023-06-07T07:47:14.768Z,86.32
2023-06-07T07:51:18.017Z,86.53
2023-06-07T07:55:24.733Z,84.78
2023-06-07T07:59:27.855Z,84.00
2023-06-07T08:03:31.263Z,83.10
2023-06-07T08:07:34.574Z,81.31
2023-06-07T08:11:39.425Z,80.70
2023-06-07T08:15:42.533Z,80.07
2023-06-07T08:19:45.527Z,78.68
2023-06-07T08:23:48.404Z,78.68
2023-06-07T08:27:52.872Z,77.75
2023-06-07T08:31:59.365Z,76.57
2023-06-07T08:36:02.342Z,77.15
2023-06-07T08:40:07.452Z,75.09
2023-06-07T08:44:12.036Z,73.30
2023-06-07T08:48:15.980Z,72.26
2023-06-07T08:52:18.992Z,69.99
2023-06-07T08:56:23.002Z,69.42
2023-06-07T09:00:27.806Z,68.92
2023-06-07T09:04:31.417Z,67.62
2023-06-07T09:08:35.436Z,66.19
2023-06-07T09:12:38.278Z,65.12
2023-06-07T09:17:01.709Z,64.17
2023-06-07T09:21:20.423Z,61.70
2023-06-07T09:25:23.329Z,60.93
2023-06-07T09:29:28.619Z,62.11
2023-06-07T09:33:35.074Z,61.83
2023-06-07T09:37:48.881Z,61.10
2023-06-07T09:41:52.895Z,60.79
2023-06-07T09:45:56.321Z,61.24
2023-06-07T09:50:09.465Z,60.44
2023-06-07T09:54:54.885Z,61.20
2023-06-07T09:59:27.515Z,59.59
2023-06-07T10:03:57.322Z,58.03
2023-06-07T10:08:02.107Z,56.48
2023-06-07T10:12:07.998Z,56.91
2023-06-07T10:16:13.137Z,53.96
2023-06-07T10:20:37.096Z,52.06
2023-06-07T10:24:53.062Z,51.61
2023-06-07T10:29:07.966Z,50.41
2023-06-07T10:33:11.882Z,50.98
2023-06-07T10:37:15.822Z,51.07
2023-06-07T10:41:20.263Z,50.75
2023-06-07T10:45:24.078Z,50.52
2023-06-07T10:49:39.503Z,50.93
2023-06-07T10:53:55.590Z,51.45
2023-06-07T10:58:01.309Z,52.01
2023-06-07T11:02:24.630Z,52.16
2023-06-07T11:06:29.335Z,53.36
2023-06-07T11:10:36.621Z,52.91
2023-06-07T11:15:02.079Z,51.81
2023-06-07T11:19:09.659Z,50.41
2023-06-07T11:23:26.409Z,49.67
2023-06-07T11:27:29.993Z,49.48
2023-06-07T11:31:34.864Z,49.46
2023-06-07T11:35:39.110Z,49.00
2023-06-07T11:39:42.236Z,49.04
2023-06-07T11:43:47.660Z,50.07
2023-06-07T11:47:54.924Z,49.12
2023-06-07T11:52:00.857Z,49.12
2023-06-07T11:56:04.561Z,49.19
2023-06-07T12:00:13.796Z,48.79
2023-06-07T12:04:22.923Z,49.19
2023-06-07T12:08:32.718Z,48.44
2023-06-07T12:12:35.692Z,48.55
2023-06-07T12:16:40.659Z,46.22
2023-06-07T12:20:48.018Z,47.10
2023-06-07T12:24:50.952Z,47.06
2023-06-07T12:28:54.035Z,46.20
2023-06-07T12:33:00.207Z,46.21
2023-06-07T12:37:05.872Z,46.44
2023-06-07T12:41:10.549Z,45.78
2023-06-07T12:45:13.524Z,45.51
2023-06-07T12:49:16.298Z,45.46
2023-06-07T12:53:25.166Z,45.69
2023-06-07T12:57:33.885Z,44.46
2023-06-07T13:01:36.911Z,44.41
2023-06-07T13:05:41.669Z,44.76
2023-06-07T13:09:45.855Z,43.79
2023-06-07T13:13:49.427Z,43.66
2023-06-07T13:17:52.536Z,43.30
2023-06-07T13:21:56.066Z,41.61
2023-06-07T13:26:00.239Z,42.00
2023-06-07T13:30:04.802Z,41.88
2023-06-07T13:34:08.494Z,42.25
2023-06-07T13:38:17.953Z,41.79
2023-06-07T13:42:25.440Z,42.78
2023-06-07T13:46:28.425Z,40.80
2023-06-07T13:50:32.910Z,40.17
2023-06-07T13:54:36.230Z,40.40
2023-06-07T13:58:43.026Z,40.52
2023-06-07T14:02:47.772Z,41.23
2023-06-07T14:06:52.751Z,40.81
2023-06-07T14:10:58.003Z,39.57
2023-06-07T14:15:06.917Z,40.18
2023-06-07T14:19:10.078Z,40.64
2023-06-07T14:23:12.878Z,41.40
2023-06-07T14:27:16.138Z,39.91
2023-06-07T14:31:27.158Z,40.14
2023-06-07T14:35:46.447Z,40.16
2023-06-07T14:40:18.494Z,40.05
2023-06-07T14:44:33.684Z,40.68
2023-06-07T14:48:38.388Z,40.65
2023-06-07T14:52:42.243Z,40.37
2023-06-07T14:56:45.302Z,40.52
2023-06-07T15:00:50.484Z,40.62
2023-06-07T15:04:54.967Z,40.79
2023-06-07T15:08:58.241Z,40.93
2023-06-07T15:13:01.528Z,40.92
2023-06-07T15:17:12.030Z,41.38
2023-06-07T15:21:50.883Z,41.62
2023-06-07T15:31:10.270Z,41.76
2023-06-07T15:40:30.411Z,41.73
2023-06-07T15:44:33.563Z,42.69
2023-06-07T15:48:36.483Z,41.18
2023-06-07T15:52:40.171Z,41.65
2023-06-07T15:56:44.532Z,41.53
2023-06-07T16:00:49.167Z,42.17
2023-06-07T16:04:52.537Z,43.04
2023-06-07T16:08:55.612Z,42.93
2023-06-07T16:13:00.183Z,42.79
2023-06-07T16:17:05.718Z,43.19
2023-06-07T16:21:09.090Z,43.22
2023-06-07T16:25:13.637Z,43.19
2023-06-07T16:29:19.230Z,42.76
2023-06-07T16:33:23.940Z,42.52
2023-06-07T16:37:27.916Z,42.25
2023-06-07T16:41:31.833Z,42.05
2023-06-07T16:45:36.188Z,42.16
2023-06-07T16:49:39.136Z,42.01
2023-06-07T16:53:42.258Z,42.01
2023-06-07T16:57:46.192Z,42.59
2023-06-07T17:01:51.393Z,43.61
2023-06-07T17:05:55.487Z,44.10
2023-06-07T17:09:58.880Z,44.90
2023-06-07T17:14:01.904Z,45.07
2023-06-07T17:18:07.292Z,45.81
2023-06-07T17:22:11.430Z,45.51
2023-06-07T17:26:31.806Z,46.29
2023-06-07T17:30:40.114Z,46.34
2023-06-07T17:34:44.347Z,46.60
2023-06-07T17:38:49.638Z,47.15
2023-06-07T17:43:08.291Z,47.35
2023-06-07T17:47:13.395Z,47.69
2023-06-07T17:51:38.510Z,48.16
2023-06-07T17:55:42.458Z,48.42
2023-06-07T17:59:45.913Z,48.93
2023-06-07T18:03:48.987Z,48.87
2023-06-07T18:07:55.489Z,48.72
2023-06-07T18:12:01.702Z,48.83
2023-06-07T18:16:26.879Z,49.17
2023-06-07T18:20:54.463Z,49.95
2023-06-07T18:24:58.938Z,51.03
2023-06-07T18:29:01.821Z,51.55
2023-06-07T18:33:06.690Z,52.08
2023-06-07T18:37:55.961Z,51.85
2023-06-07T18:42:29.797Z,51.91
2023-06-07T18:47:09.838Z,52.43
2023-06-07T18:51:23.536Z,52.94
2023-06-07T18:55:38.029Z,53.36
2023-06-07T18:59:42.486Z,53.42
2023-06-07T19:03:53.398Z,53.86
2023-06-07T19:08:15.429Z,54.43
2023-06-07T19:12:39.144Z,54.83
2023-06-07T19:16:53.836Z,56.00
2023-06-07T19:20:59.912Z,56.85
2023-06-07T19:25:05.082Z,57.27
2023-06-07T19:29:20.345Z,57.89
2023-06-07T19:33:29.459Z,58.59
2023-06-07T19:37:34.955Z,59.10
2023-06-07T19:41:40.834Z,60.18
2023-06-07T19:45:44.244Z,60.66
2023-06-07T19:49:50.260Z,60.65
2023-06-07T19:54:20.618Z,61.27
2023-06-07T19:58:37.009Z,62.18
2023-06-07T20:02:52.971Z,62.62
2023-06-07T20:06:59.103Z,63.05
2023-06-07T20:11:02.257Z,63.31
2023-06-07T20:15:07.980Z,63.80
2023-06-07T20:19:11.538Z,64.30
2023-06-07T20:23:16.066Z,65.37
2023-06-07T20:27:19.198Z,65.70
2023-06-07T20:31:23.039Z,65.71
2023-06-07T20:35:32.695Z,66.63
2023-06-07T20:39:46.110Z,67.19
2023-06-07T20:43:49.247Z,67.96
2023-06-07T20:47:52.692Z,68.69
2023-06-07T20:51:57.387Z,68.92
2023-06-07T20:56:01.679Z,68.91
2023-06-07T21:00:07.096Z,69.62
2023-06-07T21:04:10.839Z,69.69
2023-06-07T21:08:26.497Z,70.94
2023-06-07T21:12:54.711Z,71.39
2023-06-07T21:17:22.635Z,72.43
2023-06-07T21:21:42.569Z,72.85
2023-06-07T21:25:46.356Z,73.06
2023-06-07T21:29:51.802Z,73.42
2023-06-07T21:34:01.162Z,73.64
2023-06-07T21:38:17.536Z,74.10
2023-06-07T21:42:51.453Z,74.66
2023-06-07T21:52:30.650Z,75.34
2023-06-07T21:57:01.721Z,75.76
2023-06-07T22:01:26.561Z,76.15
2023-06-07T22:05:35.343Z,76.58
2023-06-07T22:09:39.725Z,76.42
2023-06-07T22:13:45.684Z,76.44
2023-06-07T22:17:54.645Z,76.95
2023-06-07T22:21:57.672Z,76.78
2023-06-07T22:26:02.118Z,76.54
2023-06-07T22:30:18.855Z,77.16
2023-06-07T22:34:45.830Z,77.46
2023-06-07T22:39:10.220Z,77.87
2023-06-07T22:43:26.472Z,78.06
2023-06-07T22:47:35.727Z,77.97
2023-06-07T22:51:41.913Z,78.02
2023-06-07T22:55:47.320Z,78.46
2023-06-07T22:59:53.275Z,78.66
2023-06-07T23:03:56.727Z,78.64
2023-06-07T23:08:00.731Z,79.23
2023-06-07T23:12:05.982Z,79.46
2023-06-07T23:16:10.117Z,79.50
2023-06-07T23:20:13.911Z,79.80
2023-06-07T23:24:22.270Z,80.28
2023-06-07T23:28:25.109Z,80.54
2023-06-07T23:32:30.789Z,80.81
2023-06-07T23:36:33.969Z,80.92
2023-06-07T23:40:37.502Z,81.06
2023-06-07T23:44:40.268Z,81.55
2023-06-07T23:48:45.232Z,82.51
2023-06-07T23:52:49.579Z,83.17
2023-06-07T23:56:52.572Z,83.70
